Time;durP1;ratioP1;P1;durP2;ratioP2;P2;SDS_P1;SDS_P2;PMS_P1;PMS_P2;Temp;Humidity;BMP_temperature;BMP_pressure;BME280_temperature;BME280_humidity;BME280_pressure;Samples;Min_cycle;Max_cycle;Signal;HPM_P1;HPM_P2
2023/04/09 00:01:15;;;;;;;34.20;20.83;;;7.40;99.90;;;;;;5018501;28;20219;-77
2023/04/09 00:03:41;;;;;;;35.13;22.87;;;7.40;99.90;;;;;;5007078;28;20215;-77
2023/04/09 00:06:07;;;;;;;33.77;22.27;;;7.40;99.90;;;;;;4985691;28;20659;-76
2023/04/09 00:08:32;;;;;;;35.23;21.87;;;7.30;99.90;;;;;;4980561;28;20214;-76
2023/04/09 00:10:58;;;;;;;36.57;22.57;;;7.30;99.90;;;;;;4982473;28;20243;-77
2023/04/09 00:13:24;;;;;;;34.00;21.97;;;7.30;99.90;;;;;;4980996;28;20190;-77
2023/04/09 00:15:50;;;;;;;34.70;21.67;;;7.30;99.90;;;;;;4984120;28;20255;-77
2023/04/09 00:18:16;;;;;;;37.00;21.60;;;7.30;99.90;;;;;;4987395;28;20217;-75
2023/04/09 00:20:42;;;;;;;36.27;22.70;;;7.30;99.90;;;;;;4989971;28;20253;-77
2023/04/09 00:23:08;;;;;;;33.33;21.83;;;7.20;99.90;;;;;;4990040;28;20210;-77
2023/04/09 00:25:34;;;;;;;37.90;23.70;;;7.20;99.90;;;;;;4988168;28;20217;-76
2023/04/09 00:28:00;;;;;;;37.00;23.53;;;7.20;99.90;;;;;;5020917;28;20217;-77
2023/04/09 00:30:28;;;;;;;37.77;22.33;;;7.20;99.90;;;;;;4986765;28;20209;-76
2023/04/09 00:32:54;;;;;;;38.27;24.13;;;7.10;99.90;;;;;;4988050;28;20236;-78
2023/04/09 00:35:20;;;;;;;38.10;22.83;;;7.10;99.90;;;;;;4987745;28;20680;-76
2023/04/09 00:37:45;;;;;;;41.10;25.30;;;7.10;99.90;;;;;;5017760;28;20243;-76
2023/04/09 00:40:11;;;;;;;42.10;25.83;;;7.10;99.90;;;;;;5016569;28;20181;-76
2023/04/09 00:42:37;;;;;;;39.63;24.07;;;7.10;99.90;;;;;;4985311;28;20305;-77
2023/04/09 00:45:05;;;;;;;41.37;23.70;;;7.10;99.90;;;;;;4987647;28;20263;-76
2023/04/09 00:47:31;;;;;;;36.17;24.17;;;7.10;99.90;;;;;;5019956;28;20700;-76
2023/04/09 00:49:57;;;;;;;37.13;23.87;;;7.00;99.90;;;;;;5022156;28;20214;-77
2023/04/09 00:52:24;;;;;;;37.33;24.17;;;7.00;99.90;;;;;;5017824;28;20190;-77
2023/04/09 00:54:50;;;;;;;36.73;23.53;;;7.00;99.90;;;;;;5017647;28;20182;-74
2023/04/09 00:57:17;;;;;;;39.87;25.23;;;6.90;99.90;;;;;;4992766;28;20236;-77
2023/04/09 00:59:44;;;;;;;39.33;23.97;;;6.90;99.90;;;;;;5027980;28;20224;-76
2023/04/09 01:02:10;;;;;;;42.27;25.37;;;6.90;99.90;;;;;;5000554;28;20233;-77
2023/04/09 01:04:36;;;;;;;37.53;23.17;;;6.90;99.90;;;;;;4998189;28;20220;-77
2023/04/09 01:07:43;;;;;;;43.13;25.60;;;6.80;99.90;;;;;;5014547;28;20581;-76
2023/04/09 01:10:34;;;;;;;40.03;24.60;;;6.80;99.90;;;;;;5011378;28;20739;-77
2023/04/09 01:13:38;;;;;;;40.30;24.53;;;6.80;99.90;;;;;;5021907;28;20200;-77
2023/04/09 01:16:04;;;;;;;37.60;23.83;;;6.80;99.90;;;;;;4995457;28;20221;-76
2023/04/09 01:18:37;;;;;;;40.97;23.90;;;6.80;99.90;;;;;;5012028;28;20213;-76
2023/04/09 01:21:08;;;;;;;40.13;24.50;;;6.70;99.90;;;;;;5009160;28;20270;-76
2023/04/09 01:23:46;;;;;;;41.87;24.77;;;6.80;99.90;;;;;;5011032;28;20247;-76
2023/04/09 01:26:48;;;;;;;40.40;24.47;;;6.70;99.90;;;;;;5008718;28;20287;-76
2023/04/09 01:29:17;;;;;;;37.73;23.03;;;6.80;99.90;;;;;;5007219;28;20269;-77
2023/04/09 01:31:44;;;;;;;37.53;23.30;;;6.70;99.90;;;;;;5007955;28;20209;-76
2023/04/09 01:34:11;;;;;;;38.90;23.53;;;6.80;99.90;;;;;;5008929;28;20233;-77
2023/04/09 01:36:39;;;;;;;40.40;24.30;;;6.70;99.90;;;;;;5014076;28;20217;-76
2023/04/09 01:39:05;;;;;;;39.57;24.03;;;6.70;99.90;;;;;;5020237;28;20678;-77
2023/04/09 01:41:33;;;;;;;36.47;22.90;;;6.70;99.90;;;;;;5012767;28;20217;-77
2023/04/09 01:44:01;;;;;;;39.33;23.57;;;6.70;99.90;;;;;;5017034;28;20562;-76
2023/04/09 01:46:27;;;;;;;39.10;24.60;;;6.80;99.90;;;;;;5012871;28;20212;-75
2023/04/09 01:48:54;;;;;;;39.37;23.90;;;6.80;99.90;;;;;;5014044;28;20208;-76
2023/04/09 01:51:20;;;;;;;39.60;23.83;;;6.70;99.90;;;;;;5011998;28;20243;-74
2023/04/09 01:53:46;;;;;;;36.17;23.77;;;6.70;99.90;;;;;;5011389;28;20223;-78
2023/04/09 01:56:11;;;;;;;39.90;25.07;;;6.70;99.90;;;;;;5007460;28;20861;-76
2023/04/09 01:58:37;;;;;;;40.73;24.17;;;6.70;99.90;;;;;;5005996;28;20668;-76
2023/04/09 02:01:10;;;;;;;37.70;24.17;;;6.70;99.90;;;;;;5009173;28;20205;-75
2023/04/09 02:03:45;;;;;;;42.67;24.37;;;6.70;99.90;;;;;;5020216;28;20202;-76
2023/04/09 02:06:25;;;;;;;38.87;24.33;;;6.60;99.90;;;;;;5009546;28;20590;-76
2023/04/09 02:08:52;;;;;;;36.03;22.07;;;6.60;99.90;;;;;;5005883;28;20258;-76
2023/04/09 02:11:20;;;;;;;39.53;24.30;;;6.50;99.90;;;;;;5011138;28;20274;-76
2023/04/09 02:13:48;;;;;;;37.87;23.40;;;6.50;99.90;;;;;;5008928;28;20718;-76
2023/04/09 02:16:14;;;;;;;35.70;23.53;;;6.50;99.90;;;;;;5012074;28;20196;-76
2023/04/09 02:18:40;;;;;;;42.50;24.53;;;6.50;99.90;;;;;;5010364;28;20558;-76
2023/04/09 02:21:06;;;;;;;38.63;24.00;;;6.50;99.90;;;;;;5003278;28;20593;-77
2023/04/09 02:23:32;;;;;;;39.20;22.93;;;6.50;99.90;;;;;;5009435;28;20263;-77
2023/04/09 02:25:58;;;;;;;40.07;23.90;;;6.50;99.90;;;;;;5009939;28;20201;-76
2023/04/09 02:28:24;;;;;;;36.40;23.30;;;6.40;99.90;;;;;;5008690;28;20173;-77
2023/04/09 02:30:49;;;;;;;41.87;24.77;;;6.40;99.90;;;;;;5007631;28;20239;-74
2023/04/09 02:33:15;;;;;;;36.03;22.77;;;6.40;99.90;;;;;;5007297;28;20741;-77
2023/04/09 02:35:41;;;;;;;36.63;23.50;;;6.40;99.90;;;;;;5000972;28;20212;-76
2023/04/09 02:38:12;;;;;;;39.40;23.73;;;6.40;99.90;;;;;;5000218;28;20236;-77
2023/04/09 02:40:41;;;;;;;36.17;22.47;;;6.30;99.90;;;;;;4990737;28;20663;-76
2023/04/09 02:43:08;;;;;;;38.30;22.73;;;6.30;99.90;;;;;;5004503;28;20177;-76
2023/04/09 02:45:33;;;;;;;37.23;23.03;;;6.30;99.90;;;;;;5001074;28;20205;-76
2023/04/09 02:47:59;;;;;;;39.23;22.80;;;6.30;99.90;;;;;;4989923;28;20305;-76
2023/04/09 02:50:24;;;;;;;37.90;21.90;;;6.30;99.90;;;;;;4980254;28;20285;-76
2023/04/09 02:52:50;;;;;;;35.43;22.23;;;6.30;99.90;;;;;;5014953;28;20264;-75
2023/04/09 02:55:16;;;;;;;36.77;23.20;;;6.30;99.90;;;;;;4991740;28;20189;-76
2023/04/09 02:57:42;;;;;;;37.63;23.07;;;6.20;99.90;;;;;;4990467;28;20197;-76
2023/04/09 03:00:09;;;;;;;37.30;23.43;;;6.20;99.90;;;;;;4990524;28;20205;-76
2023/04/09 03:02:34;;;;;;;38.23;22.77;;;6.20;99.90;;;;;;4984241;28;20217;-76
2023/04/09 03:05:00;;;;;;;37.67;22.83;;;6.20;99.90;;;;;;4989573;28;20210;-75
2023/04/09 03:07:26;;;;;;;36.27;21.37;;;6.10;99.90;;;;;;4983786;28;20206;-75
2023/04/09 03:09:51;;;;;;;39.70;23.63;;;6.10;99.90;;;;;;5002819;28;20174;-75
2023/04/09 03:12:17;;;;;;;33.87;23.23;;;6.10;99.90;;;;;;5015099;28;20205;-75
2023/04/09 03:14:42;;;;;;;41.47;24.93;;;6.10;99.90;;;;;;4985234;28;20625;-76
2023/04/09 03:17:08;;;;;;;39.47;23.37;;;6.10;99.90;;;;;;4986353;28;20233;-76
2023/04/09 03:19:34;;;;;;;39.77;25.00;;;6.10;99.90;;;;;;4983155;28;20234;-76
2023/04/09 03:21:59;;;;;;;41.13;24.93;;;6.00;99.90;;;;;;4986057;28;20205;-76
2023/04/09 03:24:25;;;;;;;39.73;24.53;;;6.00;99.90;;;;;;4980676;28;20214;-75
2023/04/09 03:26:50;;;;;;;41.13;24.90;;;5.90;99.90;;;;;;4983293;28;20298;-74
2023/04/09 03:29:16;;;;;;;41.53;24.00;;;5.80;99.90;;;;;;5013307;28;20204;-76
2023/04/09 03:31:42;;;;;;;37.53;23.47;;;5.70;99.90;;;;;;4989226;28;20210;-76
2023/04/09 03:34:07;;;;;;;34.47;22.07;;;5.60;99.90;;;;;;4991265;28;20174;-76
2023/04/09 03:36:33;;;;;;;31.93;21.87;;;5.60;99.90;;;;;;4987668;28;20225;-74
2023/04/09 03:38:59;;;;;;;38.90;23.73;;;5.50;99.90;;;;;;4989955;28;20561;-76
2023/04/09 03:41:25;;;;;;;40.40;24.40;;;5.40;99.90;;;;;;4988924;28;20815;-76
2023/04/09 03:43:51;;;;;;;41.57;23.10;;;5.20;99.90;;;;;;4987520;28;20297;-77
2023/04/09 03:46:17;;;;;;;39.17;23.57;;;5.20;99.90;;;;;;5018427;28;20748;-77
2023/04/09 03:48:43;;;;;;;38.03;21.87;;;5.20;99.90;;;;;;4986334;28;20573;-77
2023/04/09 03:51:15;;;;;;;40.23;22.37;;;5.00;99.90;;;;;;4987311;28;20688;-74
2023/04/09 03:53:42;;;;;;;37.33;21.07;;;4.90;99.90;;;;;;4983958;28;20213;-77
2023/04/09 03:56:08;;;;;;;37.83;21.10;;;5.00;99.90;;;;;;5017981;28;20224;-77
2023/04/09 03:58:34;;;;;;;38.50;23.00;;;5.00;99.90;;;;;;5000676;28;20423;-75
2023/04/09 04:01:00;;;;;;;36.03;21.10;;;5.00;99.90;;;;;;5001550;28;20204;-76
2023/04/09 04:03:26;;;;;;;34.83;21.77;;;5.10;99.90;;;;;;5001172;28;20204;-77
2023/04/09 04:05:51;;;;;;;34.13;20.90;;;5.00;99.90;;;;;;4999670;28;20233;-77
2023/04/09 04:08:17;;;;;;;32.47;20.37;;;5.00;99.90;;;;;;5005589;28;20776;-77
2023/04/09 04:10:43;;;;;;;34.23;20.87;;;5.10;99.90;;;;;;5001392;28;20207;-77
2023/04/09 04:13:09;;;;;;;34.47;20.20;;;5.10;99.90;;;;;;4992347;28;20166;-75
2023/04/09 04:15:41;;;;;;;34.00;20.70;;;5.10;99.90;;;;;;5000918;28;20184;-75
2023/04/09 04:18:07;;;;;;;32.17;20.33;;;5.00;99.90;;;;;;5003370;28;20692;-76
2023/04/09 04:20:34;;;;;;;33.93;21.37;;;5.10;99.90;;;;;;5008183;28;20295;-77
2023/04/09 04:22:59;;;;;;;32.63;19.93;;;5.10;99.90;;;;;;5007264;28;20205;-77
2023/04/09 04:25:25;;;;;;;36.97;22.00;;;5.10;99.90;;;;;;5006200;28;20172;-78
2023/04/09 04:27:51;;;;;;;34.00;20.67;;;5.10;99.90;;;;;;5002163;28;20198;-77
2023/04/09 04:30:17;;;;;;;36.47;21.27;;;5.00;99.90;;;;;;5002669;28;20201;-76
2023/04/09 04:32:43;;;;;;;38.50;21.30;;;5.00;99.90;;;;;;4999653;28;20201;-77
2023/04/09 04:35:08;;;;;;;40.03;22.63;;;5.00;99.90;;;;;;5008096;28;20205;-77
2023/04/09 04:37:34;;;;;;;38.97;21.00;;;5.00;99.90;;;;;;5002537;28;20224;-77
2023/04/09 04:40:01;;;;;;;32.87;21.00;;;5.00;99.90;;;;;;5017688;28;20174;-77
2023/04/09 04:42:26;;;;;;;37.40;21.90;;;4.90;99.90;;;;;;5007822;28;20216;-77
2023/04/09 04:44:52;;;;;;;37.67;21.83;;;5.00;99.90;;;;;;5004748;28;20209;-77
2023/04/09 04:47:18;;;;;;;42.90;22.53;;;5.00;99.90;;;;;;4998588;28;20252;-74
2023/04/09 04:49:44;;;;;;;37.97;21.97;;;5.10;99.90;;;;;;5000970;28;20219;-77
2023/04/09 04:52:09;;;;;;;37.77;22.63;;;5.20;99.90;;;;;;5002407;28;20212;-77
2023/04/09 04:54:35;;;;;;;39.00;22.83;;;5.20;99.90;;;;;;5004262;28;20659;-79
2023/04/09 04:57:01;;;;;;;41.13;22.80;;;5.10;99.90;;;;;;4998958;28;20209;-77
2023/04/09 04:59:27;;;;;;;36.23;22.47;;;5.10;99.90;;;;;;4999877;28;20213;-77
2023/04/09 05:01:53;;;;;;;42.07;23.63;;;5.10;99.90;;;;;;4997846;28;20232;-77
2023/04/09 05:04:18;;;;;;;39.77;22.80;;;5.20;99.90;;;;;;4999983;28;20718;-75
2023/04/09 05:06:44;;;;;;;39.63;23.07;;;5.20;99.90;;;;;;5002617;28;20227;-78
2023/04/09 05:09:10;;;;;;;42.20;24.00;;;5.30;99.90;;;;;;5001721;28;20246;-75
2023/04/09 05:11:35;;;;;;;39.63;22.83;;;5.40;99.90;;;;;;4999753;28;20201;-77
2023/04/09 05:14:01;;;;;;;43.13;23.33;;;5.50;99.90;;;;;;5000845;28;20559;-77
2023/04/09 05:16:26;;;;;;;40.83;27.90;;;5.50;99.90;;;;;;5002005;28;20470;-78
2023/04/09 05:18:52;;;;;;;36.37;21.40;;;5.40;99.90;;;;;;5004998;28;20726;-75
2023/04/09 05:21:18;;;;;;;35.33;22.47;;;5.50;99.90;;;;;;4999812;28;20210;-77
2023/04/09 05:23:43;;;;;;;39.57;22.23;;;5.50;99.90;;;;;;5006533;28;20374;-78
2023/04/09 05:26:09;;;;;;;38.07;21.93;;;5.40;99.90;;;;;;5007202;28;20271;-78
2023/04/09 05:28:35;;;;;;;47.97;23.83;;;5.40;99.90;;;;;;5004754;28;20263;-76
2023/04/09 05:31:01;;;;;;;40.10;22.87;;;5.50;99.90;;;;;;5001326;28;20336;-75
2023/04/09 05:33:27;;;;;;;39.03;23.57;;;5.50;99.90;;;;;;5009064;28;20758;-78
2023/04/09 05:35:52;;;;;;;38.40;23.13;;;5.70;99.90;;;;;;5004100;28;20677;-78
2023/04/09 05:38:18;;;;;;;40.13;24.30;;;5.70;99.90;;;;;;5006139;28;20236;-76
2023/04/09 05:40:44;;;;;;;41.87;24.83;;;5.90;99.90;;;;;;5005535;28;20213;-77
2023/04/09 05:43:10;;;;;;;38.17;22.20;;;5.90;99.90;;;;;;5008734;28;20185;-77
2023/04/09 05:45:36;;;;;;;43.03;23.47;;;5.90;99.90;;;;;;5008174;28;20185;-78
2023/04/09 05:48:02;;;;;;;43.00;23.03;;;5.60;99.90;;;;;;5004986;28;20221;-78
2023/04/09 05:50:28;;;;;;;39.07;23.67;;;5.40;99.90;;;;;;5011785;28;20209;-78
2023/04/09 05:52:53;;;;;;;42.10;25.43;;;5.50;99.90;;;;;;5004240;28;20222;-76
2023/04/09 05:55:19;;;;;;;40.90;23.73;;;5.60;99.90;;;;;;5005468;28;20595;-75
2023/04/09 05:57:45;;;;;;;43.43;24.80;;;5.70;99.90;;;;;;5011055;28;20225;-78
2023/04/09 06:00:11;;;;;;;44.33;25.43;;;5.90;99.90;;;;;;5002049;28;20206;-77
2023/04/09 06:02:36;;;;;;;48.77;25.83;;;5.90;99.90;;;;;;5007717;28;20299;-77
2023/04/09 06:05:02;;;;;;;43.27;25.80;;;6.00;99.90;;;;;;5004915;28;20217;-75
2023/04/09 06:07:28;;;;;;;40.67;23.27;;;6.10;99.90;;;;;;5004582;28;20302;-77
2023/04/09 06:09:56;;;;;;;38.57;22.90;;;6.20;99.90;;;;;;5005173;28;20193;-77
2023/04/09 06:12:22;;;;;;;40.10;22.77;;;6.30;99.90;;;;;;5005516;28;20208;-77
2023/04/09 06:14:48;;;;;;;39.90;23.57;;;6.30;99.90;;;;;;5004473;28;20300;-77
2023/04/09 06:17:14;;;;;;;41.90;24.07;;;6.50;99.90;;;;;;5009877;28;20263;-78
2023/04/09 06:19:39;;;;;;;43.27;25.73;;;6.60;99.90;;;;;;5004827;28;20213;-77
2023/04/09 06:22:08;;;;;;;38.13;24.13;;;6.60;99.90;;;;;;5002529;28;20618;-77
2023/04/09 06:24:33;;;;;;;41.00;24.07;;;6.50;99.90;;;;;;5005726;28;20288;-78
2023/04/09 06:26:59;;;;;;;41.40;23.63;;;6.50;99.90;;;;;;5006002;28;20300;-78
2023/04/09 06:29:25;;;;;;;39.87;24.33;;;6.60;99.90;;;;;;5004357;28;20701;-78
2023/04/09 06:31:50;;;;;;;41.17;24.23;;;6.70;99.90;;;;;;5002137;28;20221;-78
2023/04/09 06:34:16;;;;;;;40.30;25.13;;;6.50;99.90;;;;;;5006488;28;20178;-78
2023/04/09 06:36:43;;;;;;;39.80;23.83;;;6.60;99.90;;;;;;5005235;28;20244;-78
2023/04/09 06:39:09;;;;;;;42.97;24.27;;;6.60;99.90;;;;;;5004495;28;20286;-79
2023/04/09 06:41:34;;;;;;;40.93;23.83;;;6.80;99.90;;;;;;5010061;28;20268;-77
2023/04/09 06:44:00;;;;;;;38.93;23.30;;;6.80;99.90;;;;;;5007651;28;20213;-77
2023/04/09 06:46:26;;;;;;;39.40;23.17;;;6.70;99.90;;;;;;5003262;28;20198;-77
2023/04/09 06:48:52;;;;;;;39.17;24.37;;;6.90;99.90;;;;;;5001700;28;20656;-76
2023/04/09 06:51:18;;;;;;;40.83;24.47;;;6.80;99.90;;;;;;5007644;28;20588;-76
2023/04/09 06:53:44;;;;;;;37.63;23.70;;;6.90;99.90;;;;;;5002892;28;20213;-75
2023/04/09 06:56:10;;;;;;;41.07;24.57;;;7.10;99.90;;;;;;5000430;28;20217;-78
2023/04/09 06:58:35;;;;;;;36.73;22.20;;;7.30;99.90;;;;;;5003727;28;20213;-77
2023/04/09 07:01:01;;;;;;;34.30;22.27;;;7.90;99.90;;;;;;5001627;28;20577;-77
2023/04/09 07:03:28;;;;;;;34.07;22.27;;;8.20;99.90;;;;;;5002855;28;20205;-78
2023/04/09 07:05:55;;;;;;;32.63;21.63;;;8.30;99.90;;;;;;5005058;28;20687;-78
2023/04/09 07:08:22;;;;;;;34.27;21.27;;;8.30;99.90;;;;;;4995771;28;20611;-78
2023/04/09 07:10:48;;;;;;;34.17;21.30;;;8.30;99.90;;;;;;4987323;28;20217;-78
2023/04/09 07:13:13;;;;;;;34.23;21.23;;;7.90;99.90;;;;;;5002887;28;20245;-75
2023/04/09 07:15:39;;;;;;;31.53;20.00;;;7.90;99.90;;;;;;4982190;28;20182;-78
2023/04/09 07:18:05;;;;;;;36.27;22.50;;;7.80;99.90;;;;;;4983070;28;20750;-79
2023/04/09 07:20:30;;;;;;;32.93;21.77;;;7.90;99.90;;;;;;4986820;28;20209;-78
2023/04/09 07:22:56;;;;;;;32.13;21.23;;;8.10;99.90;;;;;;5012518;23;20234;-76
2023/04/09 07:25:22;;;;;;;32.50;20.13;;;8.50;99.90;;;;;;4987109;28;20261;-75
2023/04/09 07:27:48;;;;;;;35.30;21.47;;;8.50;99.90;;;;;;4981532;28;20723;-76
2023/04/09 07:30:14;;;;;;;39.03;22.23;;;8.40;99.90;;;;;;4983471;28;20214;-76
2023/04/09 07:32:40;;;;;;;36.83;22.30;;;8.50;99.90;;;;;;4981978;28;20225;-75
2023/04/09 07:35:08;;;;;;;36.20;23.20;;;8.10;99.90;;;;;;4967732;28;20218;-76
2023/04/09 07:37:34;;;;;;;34.80;22.30;;;7.70;99.90;;;;;;4968834;28;20591;-76
2023/04/09 07:40:02;;;;;;;35.03;21.60;;;7.80;99.90;;;;;;4964795;28;20198;-75
2023/04/09 07:42:28;;;;;;;36.53;22.90;;;7.60;99.90;;;;;;4967475;28;20249;-76
2023/04/09 07:44:55;;;;;;;37.70;23.57;;;7.70;99.90;;;;;;4970717;28;20214;-75
2023/04/09 07:47:22;;;;;;;38.50;23.87;;;7.70;99.90;;;;;;4970890;28;20618;-75
2023/04/09 07:49:48;;;;;;;37.83;24.10;;;7.60;99.90;;;;;;4972095;28;20315;-74
2023/04/09 07:52:14;;;;;;;39.87;23.67;;;7.50;99.90;;;;;;4971843;28;20294;-75
2023/04/09 07:54:40;;;;;;;39.73;23.47;;;7.30;99.90;;;;;;4972163;28;20190;-75
2023/04/09 07:57:06;;;;;;;37.33;24.10;;;7.20;99.90;;;;;;4971204;28;20222;-75
2023/04/09 07:59:32;;;;;;;44.07;24.83;;;7.30;99.90;;;;;;4972264;28;20245;-76
2023/04/09 08:01:58;;;;;;;44.33;24.90;;;7.30;99.90;;;;;;4966467;28;20242;-76
2023/04/09 08:04:24;;;;;;;38.83;23.37;;;7.60;99.90;;;;;;4968948;28;20178;-74
2023/04/09 08:06:50;;;;;;;42.13;24.83;;;7.70;99.90;;;;;;4964212;28;20570;-74
2023/04/09 08:09:16;;;;;;;41.30;25.10;;;8.00;99.90;;;;;;4966200;28;20213;-75
2023/04/09 08:11:44;;;;;;;37.77;23.73;;;8.10;99.90;;;;;;4969133;28;20206;-75
2023/04/09 08:14:11;;;;;;;42.13;24.10;;;8.10;99.90;;;;;;4966254;28;20619;-75
2023/04/09 08:16:39;;;;;;;40.03;23.77;;;8.20;99.90;;;;;;4968296;28;20214;-74
2023/04/09 08:19:05;;;;;;;38.33;24.80;;;8.30;99.90;;;;;;4970169;28;20190;-76
2023/04/09 08:21:31;;;;;;;36.47;22.93;;;8.50;99.90;;;;;;4971811;28;20218;-75
2023/04/09 08:24:00;;;;;;;38.73;24.33;;;8.50;99.90;;;;;;4969980;28;20701;-75
2023/04/09 08:26:25;;;;;;;36.33;22.33;;;8.50;99.90;;;;;;4967943;28;20293;-75
2023/04/09 08:28:51;;;;;;;37.90;23.33;;;8.40;99.90;;;;;;4967199;28;20310;-75
2023/04/09 08:31:17;;;;;;;41.17;25.97;;;8.50;99.90;;;;;;4971084;28;20281;-75
2023/04/09 08:33:42;;;;;;;38.57;25.40;;;8.40;99.90;;;;;;4970552;28;20799;-76
2023/04/09 08:36:10;;;;;;;42.33;25.77;;;8.30;99.90;;;;;;4979213;28;20225;-75
2023/04/09 08:38:35;;;;;;;37.17;24.43;;;8.40;99.90;;;;;;4970616;28;20206;-76
2023/04/09 08:41:01;;;;;;;41.30;26.67;;;8.60;99.90;;;;;;4966286;28;20218;-75
2023/04/09 08:43:28;;;;;;;49.33;27.87;;;8.80;99.90;;;;;;4971764;28;20194;-76
2023/04/09 08:45:56;;;;;;;35.33;23.63;;;9.00;99.90;;;;;;4968697;28;20194;-75
2023/04/09 08:48:23;;;;;;;38.00;23.33;;;9.00;99.90;;;;;;4967305;28;20233;-75
2023/04/09 08:50:49;;;;;;;37.67;22.93;;;9.10;99.90;;;;;;4966199;28;20652;-76
2023/04/09 08:53:18;;;;;;;38.57;24.20;;;9.00;99.90;;;;;;4983988;28;20245;-76
2023/04/09 08:55:46;;;;;;;41.43;27.13;;;9.00;99.90;;;;;;4969106;28;20217;-75
2023/04/09 08:58:12;;;;;;;39.50;25.70;;;9.00;99.90;;;;;;4967461;28;20214;-75
2023/04/09 09:00:38;;;;;;;40.33;26.63;;;9.20;99.90;;;;;;4970713;28;20376;-76
2023/04/09 09:03:13;;;;;;;42.30;26.93;;;9.30;99.90;;;;;;4967074;28;20294;-76
2023/04/09 09:05:42;;;;;;;38.17;25.20;;;9.30;99.90;;;;;;4973649;28;20220;-76
2023/04/09 09:08:13;;;;;;;35.27;22.80;;;9.40;99.90;;;;;;4974016;28;20704;-76
2023/04/09 09:10:38;;;;;;;35.07;23.60;;;9.50;99.90;;;;;;4974634;28;20289;-75
2023/04/09 09:13:26;;;;;;;39.60;24.27;;;9.80;99.90;;;;;;4973667;28;20293;-76
2023/04/09 09:15:55;;;;;;;36.80;23.03;;;9.80;99.90;;;;;;4984845;28;20583;-74
2023/04/09 09:18:40;;;;;;;36.10;23.03;;;9.80;99.90;;;;;;4993019;28;20687;-75
2023/04/09 09:21:16;;;;;;;33.70;22.30;;;10.00;99.90;;;;;;4992770;28;20218;-77
2023/04/09 09:23:43;;;;;;;35.23;22.17;;;10.10;99.90;;;;;;4994485;28;20625;-76
2023/04/09 09:26:19;;;;;;;36.87;24.37;;;10.20;99.90;;;;;;4993790;28;20221;-75
2023/04/09 09:28:49;;;;;;;35.20;23.93;;;10.20;99.90;;;;;;4994486;28;20263;-75
2023/04/09 09:31:17;;;;;;;35.13;23.63;;;10.50;99.90;;;;;;5002740;28;20205;-76
2023/04/09 09:33:43;;;;;;;35.90;23.80;;;10.60;99.90;;;;;;4992756;28;20225;-74
2023/04/09 09:36:09;;;;;;;35.07;23.53;;;10.60;99.90;;;;;;4994093;28;20247;-74
2023/04/09 09:38:52;;;;;;;37.43;23.13;;;10.60;99.90;;;;;;4982698;28;20713;-75
2023/04/09 09:41:18;;;;;;;31.90;21.03;;;10.30;99.90;;;;;;4968124;28;20245;-75
2023/04/09 09:43:45;;;;;;;34.37;23.40;;;10.20;99.90;;;;;;4974876;28;20293;-72
2023/04/09 09:46:11;;;;;;;34.17;23.13;;;10.40;99.90;;;;;;4974245;28;20708;-75
2023/04/09 09:48:37;;;;;;;33.17;22.27;;;10.90;99.90;;;;;;4975321;28;20175;-76
2023/04/09 09:51:08;;;;;;;33.87;23.13;;;10.90;99.90;;;;;;4974450;28;20226;-77
2023/04/09 09:53:36;;;;;;;41.45;26.30;;;11.10;99.90;;;;;;4973243;28;20748;-76
2023/04/09 09:56:04;;;;;;;35.13;23.83;;;11.60;99.90;;;;;;4981224;28;20213;-75
2023/04/09 09:58:48;;;;;;;34.90;23.92;;;11.80;99.90;;;;;;4989267;28;20296;-75
2023/04/09 10:01:18;;;;;;;33.70;23.90;;;11.90;99.90;;;;;;4974017;28;20245;-76
2023/04/09 10:03:45;;;;;;;31.38;22.25;;;11.80;99.90;;;;;;4974877;28;20198;-77
2023/04/09 10:06:13;;;;;;;33.10;22.83;;;12.00;99.90;;;;;;4973795;28;20202;-75
2023/04/09 10:08:41;;;;;;;31.08;21.88;;;11.90;99.90;;;;;;4976357;28;20580;-75
2023/04/09 10:11:07;;;;;;;32.85;22.73;;;11.80;99.90;;;;;;4983637;28;20284;-75
2023/04/09 10:13:36;;;;;;;35.00;25.40;;;11.80;99.90;;;;;;4991053;28;20777;-74
2023/04/09 10:16:03;;;;;;;29.42;21.67;;;12.20;99.90;;;;;;4991594;28;20189;-75
2023/04/09 10:18:32;;;;;;;29.75;21.38;;;12.40;99.90;;;;;;4993499;28;20213;-75
2023/04/09 10:21:06;;;;;;;29.48;20.23;;;12.30;99.90;;;;;;4977119;28;20206;-75
2023/04/09 10:23:37;;;;;;;31.15;20.27;;;12.30;99.90;;;;;;4972432;28;20345;-76
2023/04/09 10:26:04;;;;;;;31.38;21.20;;;12.20;99.90;;;;;;4978805;28;20218;-76
2023/04/09 10:28:30;;;;;;;28.45;20.48;;;11.80;99.90;;;;;;4992070;28;20206;-76
2023/04/09 10:30:57;;;;;;;31.80;21.88;;;12.00;99.90;;;;;;4993429;28;20181;-75
2023/04/09 10:33:28;;;;;;;32.53;21.80;;;11.90;99.90;;;;;;4973909;28;20237;-75
2023/04/09 10:35:58;;;;;;;28.70;21.00;;;12.20;99.90;;;;;;4968795;28;20217;-77
2023/04/09 10:38:34;;;;;;;28.48;19.30;;;12.60;99.90;;;;;;4973768;28;20689;-77
2023/04/09 10:41:21;;;;;;;30.17;20.65;;;12.80;99.90;;;;;;4973074;28;20697;-74
2023/04/09 10:43:47;;;;;;;30.40;21.45;;;12.60;99.90;;;;;;4974281;28;20779;-74
2023/04/09 10:46:35;;;;;;;30.65;20.42;;;12.30;99.90;;;;;;4973776;28;20262;-75
2023/04/09 10:49:24;;;;;;;31.58;21.05;;;12.10;99.90;;;;;;4993126;28;20170;-75
2023/04/09 10:51:53;;;;;;;28.35;19.70;;;12.00;99.90;;;;;;4993254;28;20708;-75
2023/04/09 10:54:34;;;;;;;31.38;21.02;;;11.90;99.90;;;;;;4992737;28;20835;-75
2023/04/09 10:57:16;;;;;;;32.90;21.15;;;11.90;99.90;;;;;;4992491;28;20225;-74
2023/04/09 10:59:53;;;;;;;27.08;19.35;;;12.10;99.90;;;;;;4992754;28;20224;-74
2023/04/09 11:02:37;;;;;;;28.08;19.65;;;12.30;99.90;;;;;;4992549;28;20217;-75
2023/04/09 11:05:21;;;;;;;28.17;20.13;;;12.30;99.90;;;;;;4992324;28;20217;-75
2023/04/09 11:08:03;;;;;;;28.10;19.55;;;12.10;99.90;;;;;;4992411;28;20213;-76
2023/04/09 11:10:29;;;;;;;27.13;19.10;;;12.30;99.90;;;;;;4989084;28;20615;-75
2023/04/09 11:12:55;;;;;;;28.23;19.75;;;12.30;99.90;;;;;;4993096;28;20212;-76
2023/04/09 11:15:21;;;;;;;27.40;18.63;;;12.50;99.90;;;;;;4992038;28;20217;-73
2023/04/09 11:17:47;;;;;;;29.10;19.15;;;12.00;99.90;;;;;;4992344;28;20264;-75
2023/04/09 11:20:15;;;;;;;29.10;19.35;;;11.70;99.90;;;;;;4982008;28;20257;-75
2023/04/09 11:22:41;;;;;;;28.33;18.73;;;11.70;99.90;;;;;;4977306;28;20778;-74
2023/04/09 11:25:07;;;;;;;29.05;20.25;;;11.80;99.90;;;;;;4989794;28;20185;-75
2023/04/09 11:27:37;;;;;;;26.67;18.80;;;11.90;99.90;;;;;;4971973;28;20215;-75
2023/04/09 11:30:03;;;;;;;30.13;18.23;;;12.00;99.90;;;;;;4987789;28;20932;-74
2023/04/09 11:32:30;;;;;;;29.00;18.90;;;12.00;99.90;;;;;;4992365;28;20300;-75
2023/04/09 11:34:56;;;;;;;29.47;18.80;;;12.00;99.90;;;;;;4990811;28;20214;-76
2023/04/09 11:37:22;;;;;;;27.17;18.35;;;11.90;99.90;;;;;;4991713;28;20181;-73
2023/04/09 11:39:53;;;;;;;28.77;18.03;;;11.70;99.90;;;;;;4991331;28;20178;-76
2023/04/09 11:42:19;;;;;;;27.57;18.70;;;11.90;99.90;;;;;;4975026;28;20770;-75
2023/04/09 11:44:45;;;;;;;25.30;18.23;;;12.10;99.90;;;;;;4969534;28;20198;-75
2023/04/09 11:47:16;;;;;;;26.97;17.23;;;12.10;99.90;;;;;;4972282;28;20218;-74
2023/04/09 11:49:42;;;;;;;27.93;17.70;;;12.20;99.90;;;;;;4972454;28;20210;-75
2023/04/09 11:52:09;;;;;;;26.87;17.17;;;12.20;99.90;;;;;;4972176;28;20198;-75
2023/04/09 11:54:35;;;;;;;30.07;19.63;;;12.30;99.90;;;;;;4992331;28;20170;-76
2023/04/09 11:57:03;;;;;;;27.47;17.87;;;12.00;99.90;;;;;;4991205;28;20213;-74
2023/04/09 11:59:29;;;;;;;27.83;18.10;;;11.90;99.90;;;;;;4988744;28;20641;-75
2023/04/09 12:01:57;;;;;;;29.23;18.13;;;12.20;99.90;;;;;;4991492;28;20225;-74
2023/04/09 12:04:23;;;;;;;27.60;17.50;;;12.10;99.90;;;;;;4985693;28;20699;-73
2023/04/09 12:06:49;;;;;;;25.55;17.17;;;12.20;99.90;;;;;;4972522;28;20208;-76
2023/04/09 12:09:15;;;;;;;26.17;16.02;;;12.40;99.90;;;;;;4987427;28;20214;-74
2023/04/09 12:11:45;;;;;;;26.02;16.63;;;12.30;99.90;;;;;;4991360;28;20209;-76
2023/04/09 12:14:15;;;;;;;25.13;16.50;;;12.40;99.90;;;;;;4985070;28;20213;-76
2023/04/09 12:16:43;;;;;;;27.30;17.93;;;12.60;99.90;;;;;;4991202;28;20201;-76
2023/04/09 12:19:10;;;;;;;29.73;18.05;;;12.90;99.90;;;;;;4990698;28;20177;-75
2023/04/09 12:21:50;;;;;;;29.53;17.00;;;12.70;99.90;;;;;;4990371;28;20201;-75
2023/04/09 12:24:18;;;;;;;25.23;16.80;;;12.60;99.90;;;;;;4988165;28;20245;-75
2023/04/09 12:26:45;;;;;;;25.25;17.23;;;12.60;99.90;;;;;;4976855;28;20585;-75
2023/04/09 12:29:13;;;;;;;25.58;16.63;;;12.80;99.90;;;;;;4970257;28;20253;-75
2023/04/09 12:31:39;;;;;;;30.13;17.77;;;12.70;99.90;;;;;;4976019;28;20210;-74
2023/04/09 12:34:04;;;;;;;23.90;16.42;;;12.40;99.90;;;;;;4987752;28;20280;-73
2023/04/09 12:36:30;;;;;;;29.17;16.63;;;12.30;99.90;;;;;;4990921;28;20556;-75